Essex, Maryland
Current Conditions -  °F | °C
As of 2:45 PM on Friday 24 Oct 2014 (Local Time) from KMTN Reporting Station
Scattered Clouds Scattered Clouds  
Wind Chill: 70°   Ceiling: Unl
Heat Index: 70°   Visibility: 10mi
Dew Point: 45°   Wind: 17mph
Humidity: 40%   Direction: 290°WNW
Pressure: 29.87"   Gusts: 22mph
Location:  39.31°N, 76.48°W
Report Text: KMTN 241845Z 29015G19KT 10SM SCT150 21/07 A2987
Loading
Personal Weather Stations






























Interactive Weather Map New forecast layout! Learn more

10-Day Weather Forecast

Advertisements
Track Severe Weather on mobile